Thunder radar more information blitzortung!


Radar de pluja more information rain snow radar


Visita la nostra xarxa de llocs de meteo:

Template documentation
and downloads

And another site



No particular awareness of the weather is required.    There are no Weather-warnings

Pagina Historial Weather Underground text

Diari Resum January 3, 2018 Unitats:  Tant    Imperial   Mètric
« Previous Dia
SegĂźent Dia »
Diari Setmana Mensual Anual Personalitzada
  Maxima: Minima: Media:
Temperatura: TemperatureC °F /  -17.8 °C 10.1 °F /  -12.2 °C 17 °F /  -8.3 °C
Punt de rosada: DewpointC °F /  -17.8 °C 5.5 °F /  -14.7 °C 8.4 °F /  -13.1 °C
Humitat: Humidity % 44 % 57 %
Wind Speed: WindSpeedKMH mph /  0 km/h - 12 mph /  19.3 km/h
RĂ fegues de vent: WindSpeedGustKMH mph /  0 km/h - -
Vent:- - WSW
Pression baro: PressurehPa in /  0 hPa 1018.8 in /  34496.6 hPa -
Precipitacions: 0.0 in /  0 mm    
Historical Graphs
 
 
Dades de taula per January 3, 2018
Temps Temperatura Punt de rosada Pression baro Vent Wind Speed RĂ fegues de vent Humitat Rainfall Rate (Hourly)
TemperatureC °F /  -17.8 °C DewpointC °F /  -17.8 °C PressurehPa in /  0 hPa Calm     Humidity % HourlyPrecipMM in /  0 mm
00:03 12.4 °F /  -10.9 °C 6.4 °F /  -14.2 °C 1022.9 in /  34635.4 hPa NNE 5.6 mph /  9 km/h 5.6 mph /  9 km/h 67 % 0.0 in /  0 mm
00:07 12.4 °F /  -10.9 °C 6.4 °F /  -14.2 °C 1022.9 in /  34635.4 hPa West 3.7 mph /  6 km/h 3.7 mph /  6 km/h 67 % 0.0 in /  0 mm
00:10 11.8 °F /  -11.2 °C 6.3 °F /  -14.3 °C 1022.9 in /  34635.4 hPa NNW 3.2 mph /  5.1 km/h 4.8 mph /  7.7 km/h 69 % 0.0 in /  0 mm
00:20 11.4 °F /  -11.4 °C 5.9 °F /  -14.5 °C 1022.9 in /  34635.4 hPa NW 3.2 mph /  5.1 km/h 4.8 mph /  7.7 km/h 69 % 0.0 in /  0 mm
00:30 11.3 °F /  -11.5 °C 6.0 °F /  -14.4 °C 1022.9 in /  34635.4 hPa NW 4.8 mph /  7.7 km/h 4.8 mph /  7.7 km/h 70 % 0.0 in /  0 mm
00:40 11.0 °F /  -11.7 °C 5.7 °F /  -14.6 °C 1022.9 in /  34635.4 hPa Calm   4.8 mph /  7.7 km/h 70 % 0.0 in /  0 mm
00:50 11.0 °F /  -11.7 °C 5.9 °F /  -14.5 °C 1022.9 in /  34635.4 hPa WNW 3.2 mph /  5.1 km/h 3.2 mph /  5.1 km/h 71 % 0.0 in /  0 mm
01:10 10.7 °F /  -11.8 °C 5.8 °F /  -14.6 °C 1022.9 in /  34635.4 hPa North 3.2 mph /  5.1 km/h 4.8 mph /  7.7 km/h 72 % 0.0 in /  0 mm
01:20 10.8 °F /  -11.8 °C 5.9 °F /  -14.5 °C 1022.9 in /  34635.4 hPa North 1.6 mph /  2.6 km/h 3.2 mph /  5.1 km/h 72 % 0.0 in /  0 mm
01:30 10.8 °F /  -11.8 °C 5.9 °F /  -14.5 °C 1022.9 in /  34635.4 hPa North 1.6 mph /  2.6 km/h 3.2 mph /  5.1 km/h 72 % 0.0 in /  0 mm
01:40 10.5 °F /  -11.9 °C 5.7 °F /  -14.6 °C 1022.9 in /  34635.4 hPa North 1.6 mph /  2.6 km/h 3.2 mph /  5.1 km/h 72 % 0.0 in /  0 mm
01:50 10.4 °F /  -12 °C 5.8 °F /  -14.6 °C 1022.9 in /  34635.4 hPa NNE 1.6 mph /  2.6 km/h 3.2 mph /  5.1 km/h 73 % 0.0 in /  0 mm
02:00 10.4 °F /  -12 °C 5.8 °F /  -14.6 °C 1022.9 in /  34635.4 hPa NE 1.6 mph /  2.6 km/h 4.8 mph /  7.7 km/h 73 % 0.0 in /  0 mm
02:10 10.4 °F /  -12 °C 5.8 °F /  -14.6 °C 1022.9 in /  34635.4 hPa NNW 1.6 mph /  2.6 km/h 3.2 mph /  5.1 km/h 73 % 0.0 in /  0 mm
02:20 10.5 °F /  -11.9 °C 5.9 °F /  -14.5 °C 1023.9 in /  34669.3 hPa WNW 1.6 mph /  2.6 km/h 3.2 mph /  5.1 km/h 73 % 0.0 in /  0 mm
02:40 10.1 °F /  -12.2 °C 5.5 °F /  -14.7 °C 1022.9 in /  34635.4 hPa WSW 1.6 mph /  2.6 km/h 3.2 mph /  5.1 km/h 73 % 0.0 in /  0 mm
02:50 10.5 °F /  -11.9 °C 6.1 °F /  -14.4 °C 1022.9 in /  34635.4 hPa NNW 3.2 mph /  5.1 km/h 4.8 mph /  7.7 km/h 74 % 0.0 in /  0 mm
03:00 11.0 °F /  -11.7 °C 6.6 °F /  -14.1 °C 1022.9 in /  34635.4 hPa NE 4.8 mph /  7.7 km/h 4.8 mph /  7.7 km/h 74 % 0.0 in /  0 mm
03:10 11.3 °F /  -11.5 °C 6.8 °F /  -14 °C 1022.9 in /  34635.4 hPa NE 3.2 mph /  5.1 km/h 4.8 mph /  7.7 km/h 74 % 0.0 in /  0 mm
03:20 11.4 °F /  -11.4 °C 6.9 °F /  -13.9 °C 1022.9 in /  34635.4 hPa Calm   3.2 mph /  5.1 km/h 74 % 0.0 in /  0 mm
03:30 11.5 °F /  -11.4 °C 6.8 °F /  -14 °C 1022.9 in /  34635.4 hPa NNE 3.2 mph /  5.1 km/h 3.2 mph /  5.1 km/h 73 % 0.0 in /  0 mm
03:40 11.6 °F /  -11.3 °C 6.9 °F /  -13.9 °C 1023.9 in /  34669.3 hPa NE 3.2 mph /  5.1 km/h 6.4 mph /  10.3 km/h 73 % 0.0 in /  0 mm
03:50 11.7 °F /  -11.3 °C 7.0 °F /  -13.9 °C 1023.9 in /  34669.3 hPa NE 1.6 mph /  2.6 km/h 4.8 mph /  7.7 km/h 73 % 0.0 in /  0 mm
04:00 12.5 °F /  -10.8 °C 7.8 °F /  -13.4 °C 1023.9 in /  34669.3 hPa ESE 1.6 mph /  2.6 km/h 9.7 mph /  15.6 km/h 73 % 0.0 in /  0 mm
04:10 13.2 °F /  -10.4 °C 8.3 °F /  -13.2 °C 1022.9 in /  34635.4 hPa ENE 3.2 mph /  5.1 km/h 9.7 mph /  15.6 km/h 72 % 0.0 in /  0 mm
04:30 14.3 °F /  -9.8 °C 9.1 °F /  -12.7 °C 1023.9 in /  34669.3 hPa WNW 3.2 mph /  5.1 km/h 4.8 mph /  7.7 km/h 71 % 0.0 in /  0 mm
10:35 14.9 °F /  -9.5 °C 9.3 °F /  -12.6 °C 1023.9 in /  34669.3 hPa ENE 8.7 mph /  14 km/h 8.7 mph /  14 km/h 69 % 0.0 in /  0 mm
10:36 14.9 °F /  -9.5 °C 9.3 °F /  -12.6 °C 1023.9 in /  34669.3 hPa ENE 9.3 mph /  15 km/h 9.3 mph /  15 km/h 69 % 0.0 in /  0 mm
10:37 14.9 °F /  -9.5 °C 9.3 °F /  -12.6 °C 1022.9 in /  34635.4 hPa East 13.0 mph /  20.9 km/h 13.0 mph /  20.9 km/h 69 % 0.0 in /  0 mm
10:42 14.6 °F /  -9.7 °C 8.8 °F /  -12.9 °C 1022.9 in /  34635.4 hPa NNW 5.6 mph /  9 km/h 5.6 mph /  9 km/h 68 % 0.0 in /  0 mm
10:47 15.1 °F /  -9.4 °C 9.4 °F /  -12.6 °C 1022.9 in /  34635.4 hPa West 7.4 mph /  11.9 km/h 7.4 mph /  11.9 km/h 69 % 0.0 in /  0 mm
10:49 15.2 °F /  -9.3 °C 9.6 °F /  -12.4 °C 1022.9 in /  34635.4 hPa North 9.3 mph /  15 km/h 9.3 mph /  15 km/h 69 % 0.0 in /  0 mm
10:54 15.5 °F /  -9.2 °C 9.6 °F /  -12.4 °C 1023.9 in /  34669.3 hPa NNW 14.8 mph /  23.8 km/h 14.8 mph /  23.8 km/h 68 % 0.0 in /  0 mm
10:55 15.5 °F /  -9.2 °C 9.6 °F /  -12.4 °C 1023.9 in /  34669.3 hPa NW 14.8 mph /  23.8 km/h 14.8 mph /  23.8 km/h 68 % 0.0 in /  0 mm
11:00 15.6 °F /  -9.1 °C 9.5 °F /  -12.5 °C 1023.9 in /  34669.3 hPa WNW 8.0 mph /  12.9 km/h 16.1 mph /  25.9 km/h 67 % 0.0 in /  0 mm
11:05 15.8 °F /  -9 °C 9.4 °F /  -12.6 °C 1023.9 in /  34669.3 hPa West 24.1 mph /  38.8 km/h 24.1 mph /  38.8 km/h 66 % 0.0 in /  0 mm
11:06 15.8 °F /  -9 °C 9.4 °F /  -12.6 °C 1023.9 in /  34669.3 hPa North 11.1 mph /  17.9 km/h 11.1 mph /  17.9 km/h 66 % 0.0 in /  0 mm
11:09 15.9 °F /  -8.9 °C 9.6 °F /  -12.4 °C 1022.9 in /  34635.4 hPa SSW 18.5 mph /  29.8 km/h 18.5 mph /  29.8 km/h 66 % 0.0 in /  0 mm
11:13 16.0 °F /  -8.9 °C 9.4 °F /  -12.6 °C 1022.9 in /  34635.4 hPa WSW 18.5 mph /  29.8 km/h 18.5 mph /  29.8 km/h 65 % 0.0 in /  0 mm
11:14 16.1 °F /  -8.8 °C 9.5 °F /  -12.5 °C 1022.9 in /  34635.4 hPa East 9.3 mph /  15 km/h 9.3 mph /  15 km/h 65 % 0.0 in /  0 mm
11:19 16.1 °F /  -8.8 °C 9.3 °F /  -12.6 °C 1022.9 in /  34635.4 hPa West 13.0 mph /  20.9 km/h 13.0 mph /  20.9 km/h 64 % 0.0 in /  0 mm
11:21 16.2 °F /  -8.8 °C 9.4 °F /  -12.6 °C 1022.9 in /  34635.4 hPa South 14.8 mph /  23.8 km/h 14.8 mph /  23.8 km/h 64 % 0.0 in /  0 mm
11:24 16.2 °F /  -8.8 °C 9.4 °F /  -12.6 °C 1022.9 in /  34635.4 hPa WNW 16.7 mph /  26.9 km/h 16.7 mph /  26.9 km/h 64 % 0.0 in /  0 mm
11:26 16.2 °F /  -8.8 °C 9.4 °F /  -12.6 °C 1022.9 in /  34635.4 hPa SW 14.5 mph /  23.3 km/h 14.5 mph /  23.3 km/h 64 % 0.0 in /  0 mm
11:30 16.3 °F /  -8.7 °C 9.5 °F /  -12.5 °C 1022.9 in /  34635.4 hPa West 15.8 mph /  25.4 km/h 15.8 mph /  25.4 km/h 64 % 0.0 in /  0 mm
11:33 16.3 °F /  -8.7 °C 9.2 °F /  -12.7 °C 1022.9 in /  34635.4 hPa WNW 20.4 mph /  32.8 km/h 20.4 mph /  32.8 km/h 63 % 0.0 in /  0 mm
11:36 16.4 °F /  -8.7 °C 9.3 °F /  -12.6 °C 1022.9 in /  34635.4 hPa NW 27.8 mph /  44.7 km/h 27.8 mph /  44.7 km/h 63 % 0.0 in /  0 mm
11:40 16.5 °F /  -8.6 °C 9.4 °F /  -12.6 °C 1022.9 in /  34635.4 hPa NW 14.8 mph /  23.8 km/h 14.8 mph /  23.8 km/h 63 % 0.0 in /  0 mm
11:41 16.6 °F /  -8.6 °C 9.5 °F /  -12.5 °C 1022.9 in /  34635.4 hPa SSW 14.8 mph /  23.8 km/h 14.8 mph /  23.8 km/h 63 % 0.0 in /  0 mm
11:47 16.6 °F /  -8.6 °C 9.5 °F /  -12.5 °C 1022.9 in /  34635.4 hPa WSW 16.7 mph /  26.9 km/h 16.7 mph /  26.9 km/h 63 % 0.0 in /  0 mm
11:53 16.8 °F /  -8.4 °C 9.7 °F /  -12.4 °C 1022.9 in /  34635.4 hPa WSW 13.0 mph /  20.9 km/h 13.0 mph /  20.9 km/h 63 % 0.0 in /  0 mm
11:58 16.9 °F /  -8.4 °C 9.8 °F /  -12.3 °C 1022.9 in /  34635.4 hPa WSW 10.0 mph /  16.1 km/h 10.0 mph /  16.1 km/h 63 % 0.0 in /  0 mm
11:59 16.9 °F /  -8.4 °C 9.6 °F /  -12.4 °C 1022.9 in /  34635.4 hPa WSW 9.3 mph /  15 km/h 9.7 mph /  15.6 km/h 62 % 0.0 in /  0 mm
12:04 17.0 °F /  -8.3 °C 9.4 °F /  -12.6 °C 1022.9 in /  34635.4 hPa WSW 14.8 mph /  23.8 km/h 14.8 mph /  23.8 km/h 61 % 0.0 in /  0 mm
12:06 17.0 °F /  -8.3 °C 9.4 °F /  -12.6 °C 1022.9 in /  34635.4 hPa West 13.0 mph /  20.9 km/h 13.0 mph /  20.9 km/h 61 % 0.0 in /  0 mm
12:10 17.0 °F /  -8.3 °C 9.4 °F /  -12.6 °C 1022.9 in /  34635.4 hPa WSW 18.5 mph /  29.8 km/h 18.5 mph /  29.8 km/h 61 % 0.0 in /  0 mm
12:15 17.0 °F /  -8.3 °C 9.2 °F /  -12.7 °C 1022.9 in /  34635.4 hPa West 19.5 mph /  31.4 km/h 19.5 mph /  31.4 km/h 60 % 0.0 in /  0 mm
12:17 17.1 °F /  -8.3 °C 9.3 °F /  -12.6 °C 1022.9 in /  34635.4 hPa West 20.4 mph /  32.8 km/h 20.4 mph /  32.8 km/h 60 % 0.0 in /  0 mm
12:21 17.3 °F /  -8.2 °C 9.4 °F /  -12.6 °C 1022.9 in /  34635.4 hPa West 22.2 mph /  35.7 km/h 22.2 mph /  35.7 km/h 60 % 0.0 in /  0 mm
12:23 17.4 °F /  -8.1 °C 9.6 °F /  -12.4 °C 1021.9 in /  34601.5 hPa SW 15.8 mph /  25.4 km/h 15.8 mph /  25.4 km/h 60 % 0.0 in /  0 mm
12:28 17.5 °F /  -8.1 °C 9.7 °F /  -12.4 °C 1021.9 in /  34601.5 hPa SW 16.7 mph /  26.9 km/h 16.7 mph /  26.9 km/h 60 % 0.0 in /  0 mm
12:29 17.5 °F /  -8.1 °C 9.4 °F /  -12.6 °C 1021.9 in /  34601.5 hPa West 29.6 mph /  47.6 km/h 29.6 mph /  47.6 km/h 59 % 0.0 in /  0 mm
12:31 17.6 °F /  -8 °C 9.7 °F /  -12.4 °C 1021.9 in /  34601.5 hPa West 13.0 mph /  20.9 km/h 13.0 mph /  20.9 km/h 60 % 0.0 in /  0 mm
12:34 17.6 °F /  -8 °C 9.5 °F /  -12.5 °C 1021.9 in /  34601.5 hPa WNW 11.1 mph /  17.9 km/h 11.1 mph /  17.9 km/h 59 % 0.0 in /  0 mm
12:39 17.6 °F /  -8 °C 9.5 °F /  -12.5 °C 1021.9 in /  34601.5 hPa WNW 16.7 mph /  26.9 km/h 16.7 mph /  26.9 km/h 59 % 0.0 in /  0 mm
12:40 17.6 °F /  -8 °C 9.5 °F /  -12.5 °C 1021.9 in /  34601.5 hPa West 11.3 mph /  18.2 km/h 27.4 mph /  44.1 km/h 59 % 0.0 in /  0 mm
12:45 17.7 °F /  -7.9 °C 9.6 °F /  -12.4 °C 1021.9 in /  34601.5 hPa West 9.7 mph /  15.6 km/h 14.5 mph /  23.3 km/h 59 % 0.0 in /  0 mm
12:46 17.7 °F /  -7.9 °C 9.6 °F /  -12.4 °C 1021.9 in /  34601.5 hPa West 20.1 mph /  32.3 km/h 20.1 mph /  32.3 km/h 59 % 0.0 in /  0 mm
12:50 17.7 °F /  -7.9 °C 9.6 °F /  -12.4 °C 1021.9 in /  34601.5 hPa WSW 18.5 mph /  29.8 km/h 18.5 mph /  29.8 km/h 59 % 0.0 in /  0 mm
12:52 17.7 °F /  -7.9 °C 9.6 °F /  -12.4 °C 1021.9 in /  34601.5 hPa WSW 13.0 mph /  20.9 km/h 13.0 mph /  20.9 km/h 59 % 0.0 in /  0 mm
12:57 17.7 °F /  -7.9 °C 9.6 °F /  -12.4 °C 1021.9 in /  34601.5 hPa WNW 22.2 mph /  35.7 km/h 22.2 mph /  35.7 km/h 59 % 0.0 in /  0 mm
13:01 17.7 °F /  -7.9 °C 9.6 °F /  -12.4 °C 1021.9 in /  34601.5 hPa WNW 14.8 mph /  23.8 km/h 14.8 mph /  23.8 km/h 59 % 0.0 in /  0 mm
13:03 17.7 °F /  -7.9 °C 9.6 °F /  -12.4 °C 1021.9 in /  34601.5 hPa NNW 15.6 mph /  25.1 km/h 15.6 mph /  25.1 km/h 59 % 0.0 in /  0 mm
13:08 17.8 °F /  -7.9 °C 9.7 °F /  -12.4 °C 1021.9 in /  34601.5 hPa SSW 14.5 mph /  23.3 km/h 14.5 mph /  23.3 km/h 59 % 0.0 in /  0 mm
13:10 17.9 °F /  -7.8 °C 9.5 °F /  -12.5 °C 1021.9 in /  34601.5 hPa WSW 20.4 mph /  32.8 km/h 20.4 mph /  32.8 km/h 58 % 0.0 in /  0 mm
13:14 18.0 °F /  -7.8 °C 9.6 °F /  -12.4 °C 1021.9 in /  34601.5 hPa West 16.7 mph /  26.9 km/h 16.7 mph /  26.9 km/h 58 % 0.0 in /  0 mm
13:18 18.1 °F /  -7.7 °C 9.7 °F /  -12.4 °C 1021.9 in /  34601.5 hPa West 11.1 mph /  17.9 km/h 11.1 mph /  17.9 km/h 58 % 0.0 in /  0 mm
13:20 18.2 °F /  -7.7 °C 9.8 °F /  -12.3 °C 1021.9 in /  34601.5 hPa West 13.0 mph /  20.9 km/h 13.0 mph /  20.9 km/h 58 % 0.0 in /  0 mm
13:25 18.3 °F /  -7.6 °C 9.9 °F /  -12.3 °C 1021.9 in /  34601.5 hPa West 21.2 mph /  34.1 km/h 21.2 mph /  34.1 km/h 58 % 0.0 in /  0 mm
13:26 18.3 °F /  -7.6 °C 9.9 °F /  -12.3 °C 1021.9 in /  34601.5 hPa WNW 22.2 mph /  35.7 km/h 22.2 mph /  35.7 km/h 58 % 0.0 in /  0 mm
13:30 18.4 °F /  -7.6 °C 10.0 °F /  -12.2 °C 1021.9 in /  34601.5 hPa NNW 14.8 mph /  23.8 km/h 14.8 mph /  23.8 km/h 58 % 0.0 in /  0 mm
13:35 18.4 °F /  -7.6 °C 9.7 °F /  -12.4 °C 1021.9 in /  34601.5 hPa NW 15.8 mph /  25.4 km/h 15.8 mph /  25.4 km/h 57 % 0.0 in /  0 mm
13:36 18.5 °F /  -7.5 °C 9.8 °F /  -12.3 °C 1021.9 in /  34601.5 hPa WSW 14.8 mph /  23.8 km/h 14.8 mph /  23.8 km/h 57 % 0.0 in /  0 mm
13:41 18.5 °F /  -7.5 °C 9.8 °F /  -12.3 °C 1021.9 in /  34601.5 hPa WNW 14.8 mph /  23.8 km/h 14.8 mph /  23.8 km/h 57 % 0.0 in /  0 mm
13:43 18.5 °F /  -7.5 °C 9.8 °F /  -12.3 °C 1021.9 in /  34601.5 hPa NW 13.0 mph /  20.9 km/h 13.0 mph /  20.9 km/h 57 % 0.0 in /  0 mm
13:48 18.6 °F /  -7.4 °C 9.7 °F /  -12.4 °C 1021.9 in /  34601.5 hPa WNW 25.9 mph /  41.7 km/h 25.9 mph /  41.7 km/h 56 % 0.0 in /  0 mm
13:50 18.6 °F /  -7.4 °C 9.7 °F /  -12.4 °C 1021.9 in /  34601.5 hPa WNW 18.5 mph /  29.8 km/h 18.5 mph /  29.8 km/h 56 % 0.0 in /  0 mm
13:51 18.7 °F /  -7.4 °C 9.7 °F /  -12.4 °C 1021.9 in /  34601.5 hPa WNW 16.7 mph /  26.9 km/h 16.7 mph /  26.9 km/h 56 % 0.0 in /  0 mm
13:56 18.7 °F /  -7.4 °C 9.7 °F /  -12.4 °C 1021.9 in /  34601.5 hPa WSW 20.4 mph /  32.8 km/h 20.4 mph /  32.8 km/h 56 % 0.0 in /  0 mm
13:59 18.7 °F /  -7.4 °C 9.7 °F /  -12.4 °C 1021.9 in /  34601.5 hPa WNW 24.1 mph /  38.8 km/h 24.1 mph /  38.8 km/h 56 % 0.0 in /  0 mm
14:03 18.8 °F /  -7.3 °C 9.8 °F /  -12.3 °C 1021.9 in /  34601.5 hPa SW 24.1 mph /  38.8 km/h 24.1 mph /  38.8 km/h 56 % 0.0 in /  0 mm
14:04 18.8 °F /  -7.3 °C 9.6 °F /  -12.4 °C 1021.9 in /  34601.5 hPa WNW 27.8 mph /  44.7 km/h 27.8 mph /  44.7 km/h 55 % 0.0 in /  0 mm
14:09 18.9 °F /  -7.3 °C 9.7 °F /  -12.4 °C 1021.9 in /  34601.5 hPa West 16.9 mph /  27.2 km/h 16.9 mph /  27.2 km/h 55 % 0.0 in /  0 mm
14:10 18.9 °F /  -7.3 °C 9.7 °F /  -12.4 °C 1021.9 in /  34601.5 hPa West 23.7 mph /  38.1 km/h 23.7 mph /  38.1 km/h 55 % 0.0 in /  0 mm
14:13 18.9 °F /  -7.3 °C 9.7 °F /  -12.4 °C 1021.9 in /  34601.5 hPa West 20.4 mph /  32.8 km/h 20.4 mph /  32.8 km/h 55 % 0.0 in /  0 mm
14:19 19.1 °F /  -7.2 °C 9.6 °F /  -12.4 °C 1021.9 in /  34601.5 hPa WNW 18.5 mph /  29.8 km/h 18.5 mph /  29.8 km/h 54 % 0.0 in /  0 mm
14:21 19.1 °F /  -7.2 °C 9.6 °F /  -12.4 °C 1020.9 in /  34567.7 hPa West 25.9 mph /  41.7 km/h 25.9 mph /  41.7 km/h 54 % 0.0 in /  0 mm
14:26 19.2 °F /  -7.1 °C 9.7 °F /  -12.4 °C 1020.9 in /  34567.7 hPa NNE 14.8 mph /  23.8 km/h 14.8 mph /  23.8 km/h 54 % 0.0 in /  0 mm
14:31 19.3 °F /  -7.1 °C 9.8 °F /  -12.3 °C 1020.9 in /  34567.7 hPa WSW 15.8 mph /  25.4 km/h 15.8 mph /  25.4 km/h 54 % 0.0 in /  0 mm
14:34 19.3 °F /  -7.1 °C 9.5 °F /  -12.5 °C 1020.9 in /  34567.7 hPa WNW 14.8 mph /  23.8 km/h 14.8 mph /  23.8 km/h 53 % 0.0 in /  0 mm
14:39 19.4 °F /  -7 °C 9.6 °F /  -12.4 °C 1021.9 in /  34601.5 hPa West 13.0 mph /  20.9 km/h 13.0 mph /  20.9 km/h 53 % 0.0 in /  0 mm
14:41 19.4 °F /  -7 °C 9.6 °F /  -12.4 °C 1021.9 in /  34601.5 hPa NW 13.0 mph /  20.9 km/h 13.0 mph /  20.9 km/h 53 % 0.0 in /  0 mm
14:46 19.5 °F /  -6.9 °C 9.7 °F /  -12.4 °C 1021.9 in /  34601.5 hPa WSW 20.4 mph /  32.8 km/h 20.4 mph /  32.8 km/h 53 % 0.0 in /  0 mm
14:47 19.5 °F /  -6.9 °C 9.7 °F /  -12.4 °C 1021.9 in /  34601.5 hPa WSW 16.7 mph /  26.9 km/h 16.7 mph /  26.9 km/h 53 % 0.0 in /  0 mm
14:52 19.6 °F /  -6.9 °C 9.8 °F /  -12.3 °C 1021.9 in /  34601.5 hPa WSW 11.9 mph /  19.2 km/h 11.9 mph /  19.2 km/h 53 % 0.0 in /  0 mm
14:53 19.7 °F /  -6.8 °C 9.6 °F /  -12.4 °C 1021.9 in /  34601.5 hPa West 14.8 mph /  23.8 km/h 14.8 mph /  23.8 km/h 52 % 0.0 in /  0 mm
14:59 19.7 °F /  -6.8 °C 9.6 °F /  -12.4 °C 1021.9 in /  34601.5 hPa WSW 16.9 mph /  27.2 km/h 16.9 mph /  27.2 km/h 52 % 0.0 in /  0 mm
15:01 19.7 °F /  -6.8 °C 9.6 °F /  -12.4 °C 1021.9 in /  34601.5 hPa NNW 20.4 mph /  32.8 km/h 20.4 mph /  32.8 km/h 52 % 0.0 in /  0 mm
15:04 19.8 °F /  -6.8 °C 9.7 °F /  -12.4 °C 1021.9 in /  34601.5 hPa SSW 13.0 mph /  20.9 km/h 13.0 mph /  20.9 km/h 52 % 0.0 in /  0 mm
15:09 20.1 °F /  -6.6 °C 9.7 °F /  -12.4 °C 1021.9 in /  34601.5 hPa WSW 9.3 mph /  15 km/h 11.1 mph /  17.9 km/h 51 % 0.0 in /  0 mm
15:10 20.1 °F /  -6.6 °C 9.7 °F /  -12.4 °C 1021.9 in /  34601.5 hPa West 9.3 mph /  15 km/h 11.1 mph /  17.9 km/h 51 % 0.0 in /  0 mm
15:15 20.1 °F /  -6.6 °C 9.7 °F /  -12.4 °C 1021.9 in /  34601.5 hPa WNW 24.1 mph /  38.8 km/h 24.1 mph /  38.8 km/h 51 % 0.0 in /  0 mm
15:17 20.2 °F /  -6.6 °C 9.7 °F /  -12.4 °C 1021.9 in /  34601.5 hPa WNW 13.0 mph /  20.9 km/h 13.0 mph /  20.9 km/h 51 % 0.0 in /  0 mm
15:22 20.3 °F /  -6.5 °C 9.8 °F /  -12.3 °C 1021.9 in /  34601.5 hPa SSW 10.3 mph /  16.6 km/h 10.3 mph /  16.6 km/h 51 % 0.0 in /  0 mm
15:25 20.4 °F /  -6.4 °C 9.9 °F /  -12.3 °C 1021.9 in /  34601.5 hPa West 8.0 mph /  12.9 km/h 12.9 mph /  20.8 km/h 51 % 0.0 in /  0 mm
15:27 20.5 °F /  -6.4 °C 10.0 °F /  -12.2 °C 1021.9 in /  34601.5 hPa WSW 9.3 mph /  15 km/h 9.3 mph /  15 km/h 51 % 0.0 in /  0 mm
15:35 20.6 °F /  -6.3 °C 10.1 °F /  -12.2 °C 1021.9 in /  34601.5 hPa West 9.3 mph /  15 km/h 9.3 mph /  15 km/h 51 % 0.0 in /  0 mm
15:40 20.5 °F /  -6.4 °C 9.7 °F /  -12.4 °C 1021.9 in /  34601.5 hPa WSW 11.1 mph /  17.9 km/h 11.1 mph /  17.9 km/h 50 % 0.0 in /  0 mm
15:45 20.4 °F /  -6.4 °C 9.6 °F /  -12.4 °C 1021.9 in /  34601.5 hPa West 11.1 mph /  17.9 km/h 11.1 mph /  17.9 km/h 50 % 0.0 in /  0 mm
15:47 20.4 °F /  -6.4 °C 9.6 °F /  -12.4 °C 1021.9 in /  34601.5 hPa West 11.1 mph /  17.9 km/h 11.1 mph /  17.9 km/h 50 % 0.0 in /  0 mm
15:52 20.4 °F /  -6.4 °C 9.3 °F /  -12.6 °C 1020.9 in /  34567.7 hPa WSW 14.8 mph /  23.8 km/h 14.8 mph /  23.8 km/h 49 % 0.0 in /  0 mm
15:54 20.3 °F /  -6.5 °C 9.2 °F /  -12.7 °C 1020.9 in /  34567.7 hPa WSW 9.3 mph /  15 km/h 9.3 mph /  15 km/h 49 % 0.0 in /  0 mm
15:59 20.3 °F /  -6.5 °C 8.9 °F /  -12.8 °C 1020.9 in /  34567.7 hPa WNW 18.5 mph /  29.8 km/h 18.5 mph /  29.8 km/h 48 % 0.0 in /  0 mm
16:04 20.2 °F /  -6.6 °C 8.8 °F /  -12.9 °C 1020.9 in /  34567.7 hPa WSW 7.4 mph /  11.9 km/h 7.4 mph /  11.9 km/h 48 % 0.0 in /  0 mm
16:05 20.2 °F /  -6.6 °C 8.8 °F /  -12.9 °C 1020.9 in /  34567.7 hPa NW 7.4 mph /  11.9 km/h 7.4 mph /  11.9 km/h 48 % 0.0 in /  0 mm
16:10 20.1 °F /  -6.6 °C 8.7 °F /  -12.9 °C 1021.9 in /  34601.5 hPa West 14.8 mph /  23.8 km/h 14.8 mph /  23.8 km/h 48 % 0.0 in /  0 mm
16:15 20.0 °F /  -6.7 °C 8.7 °F /  -12.9 °C 1021.9 in /  34601.5 hPa West 11.1 mph /  17.9 km/h 11.1 mph /  17.9 km/h 48 % 0.0 in /  0 mm
16:16 20.0 °F /  -6.7 °C 8.7 °F /  -12.9 °C 1021.9 in /  34601.5 hPa West 6.1 mph /  9.8 km/h 6.1 mph /  9.8 km/h 48 % 0.0 in /  0 mm
16:21 20.0 °F /  -6.7 °C 8.3 °F /  -13.2 °C 1021.9 in /  34601.5 hPa West 9.3 mph /  15 km/h 9.3 mph /  15 km/h 47 % 0.0 in /  0 mm
16:26 19.9 °F /  -6.7 °C 8.6 °F /  -13 °C 1021.9 in /  34601.5 hPa West 7.4 mph /  11.9 km/h 7.4 mph /  11.9 km/h 48 % 0.0 in /  0 mm
16:28 19.9 °F /  -6.7 °C 8.6 °F /  -13 °C 1021.9 in /  34601.5 hPa WSW 7.4 mph /  11.9 km/h 7.4 mph /  11.9 km/h 48 % 0.0 in /  0 mm
16:33 19.8 °F /  -6.8 °C 8.2 °F /  -13.2 °C 1021.9 in /  34601.5 hPa SW 9.3 mph /  15 km/h 9.3 mph /  15 km/h 47 % 0.0 in /  0 mm
16:38 19.7 °F /  -6.8 °C 8.1 °F /  -13.3 °C 1020.9 in /  34567.7 hPa SW 7.4 mph /  11.9 km/h 7.4 mph /  11.9 km/h 47 % 0.0 in /  0 mm
16:39 19.7 °F /  -6.8 °C 8.1 °F /  -13.3 °C 1020.9 in /  34567.7 hPa WSW 11.1 mph /  17.9 km/h 11.1 mph /  17.9 km/h 47 % 0.0 in /  0 mm
16:41 19.7 °F /  -6.8 °C 8.1 °F /  -13.3 °C 1020.9 in /  34567.7 hPa WSW 16.7 mph /  26.9 km/h 16.7 mph /  26.9 km/h 47 % 0.0 in /  0 mm
16:44 19.7 °F /  -6.8 °C 7.7 °F /  -13.5 °C 1020.9 in /  34567.7 hPa WSW 16.7 mph /  26.9 km/h 16.7 mph /  26.9 km/h 46 % 0.0 in /  0 mm
16:50 19.6 °F /  -6.9 °C 7.7 °F /  -13.5 °C 1020.9 in /  34567.7 hPa SW 9.3 mph /  15 km/h 9.3 mph /  15 km/h 46 % 0.0 in /  0 mm
16:51 19.6 °F /  -6.9 °C 7.7 °F /  -13.5 °C 1020.9 in /  34567.7 hPa SW 9.3 mph /  15 km/h 9.3 mph /  15 km/h 46 % 0.0 in /  0 mm
16:56 19.5 °F /  -6.9 °C 7.6 °F /  -13.6 °C 1021.9 in /  34601.5 hPa West 9.5 mph /  15.3 km/h 9.5 mph /  15.3 km/h 46 % 0.0 in /  0 mm
17:01 19.5 °F /  -6.9 °C 7.6 °F /  -13.6 °C 1021.9 in /  34601.5 hPa SW 9.5 mph /  15.3 km/h 9.5 mph /  15.3 km/h 46 % 0.0 in /  0 mm
17:02 19.4 °F /  -7 °C 7.5 °F /  -13.6 °C 1021.9 in /  34601.5 hPa West 9.3 mph /  15 km/h 9.3 mph /  15 km/h 46 % 0.0 in /  0 mm
17:07 19.3 °F /  -7.1 °C 7.4 °F /  -13.7 °C 1020.9 in /  34567.7 hPa SW 11.1 mph /  17.9 km/h 11.1 mph /  17.9 km/h 46 % 0.0 in /  0 mm
17:09 19.3 °F /  -7.1 °C 7.4 °F /  -13.7 °C 1020.9 in /  34567.7 hPa WSW 11.1 mph /  17.9 km/h 11.1 mph /  17.9 km/h 46 % 0.0 in /  0 mm
17:10 19.3 °F /  -7.1 °C 7.4 °F /  -13.7 °C 1020.9 in /  34567.7 hPa West 9.3 mph /  15 km/h 9.3 mph /  15 km/h 46 % 0.0 in /  0 mm
17:15 19.3 °F /  -7.1 °C 7.1 °F /  -13.8 °C 1020.9 in /  34567.7 hPa NW 9.7 mph /  15.6 km/h 9.7 mph /  15.6 km/h 45 % 0.0 in /  0 mm
17:21 19.4 °F /  -7 °C 6.8 °F /  -14 °C 1021.9 in /  34601.5 hPa West 20.4 mph /  32.8 km/h 20.4 mph /  32.8 km/h 44 % 0.0 in /  0 mm
17:24 19.3 °F /  -7.1 °C 7.1 °F /  -13.8 °C 1021.9 in /  34601.5 hPa West 9.3 mph /  15 km/h 9.3 mph /  15 km/h 45 % 0.0 in /  0 mm
17:28 19.2 °F /  -7.1 °C 6.7 °F /  -14.1 °C 1021.9 in /  34601.5 hPa SW 13.0 mph /  20.9 km/h 13.0 mph /  20.9 km/h 44 % 0.0 in /  0 mm
17:31 19.1 °F /  -7.2 °C 6.6 °F /  -14.1 °C 1021.9 in /  34601.5 hPa WSW 9.3 mph /  15 km/h 9.3 mph /  15 km/h 44 % 0.0 in /  0 mm
17:34 19.0 °F /  -7.2 °C 6.4 °F /  -14.2 °C 1021.9 in /  34601.5 hPa SW 11.1 mph /  17.9 km/h 11.1 mph /  17.9 km/h 44 % 0.0 in /  0 mm
17:37 19.1 °F /  -7.2 °C 6.6 °F /  -14.1 °C 1021.9 in /  34601.5 hPa SW 16.7 mph /  26.9 km/h 16.7 mph /  26.9 km/h 44 % 0.0 in /  0 mm
17:40 19.1 °F /  -7.2 °C 6.6 °F /  -14.1 °C 1021.9 in /  34601.5 hPa WSW 13.0 mph /  20.9 km/h 13.0 mph /  20.9 km/h 44 % 0.0 in /  0 mm
17:45 19.1 °F /  -7.2 °C 6.6 °F /  -14.1 °C 1021.9 in /  34601.5 hPa WNW 9.3 mph /  15 km/h 9.3 mph /  15 km/h 44 % 0.0 in /  0 mm
17:46 19.0 °F /  -7.2 °C 6.4 °F /  -14.2 °C 1021.9 in /  34601.5 hPa SW 11.1 mph /  17.9 km/h 11.1 mph /  17.9 km/h 44 % 0.0 in /  0 mm
17:51 19.0 °F /  -7.2 °C 6.4 °F /  -14.2 °C 1021.9 in /  34601.5 hPa West 16.7 mph /  26.9 km/h 16.7 mph /  26.9 km/h 44 % 0.0 in /  0 mm
17:53 18.9 °F /  -7.3 °C 6.7 °F /  -14.1 °C 1021.9 in /  34601.5 hPa WSW 11.1 mph /  17.9 km/h 11.1 mph /  17.9 km/h 45 % 0.0 in /  0 mm
18:01 18.8 °F /  -7.3 °C 6.6 °F /  -14.1 °C 1021.9 in /  34601.5 hPa SW 9.0 mph /  14.5 km/h 9.0 mph /  14.5 km/h 45 % 0.0 in /  0 mm
18:02 18.8 °F /  -7.3 °C 6.6 °F /  -14.1 °C 1021.9 in /  34601.5 hPa West 9.3 mph /  15 km/h 9.3 mph /  15 km/h 45 % 0.0 in /  0 mm
18:07 18.8 °F /  -7.3 °C 6.6 °F /  -14.1 °C 1021.9 in /  34601.5 hPa West 13.0 mph /  20.9 km/h 13.0 mph /  20.9 km/h 45 % 0.0 in /  0 mm
18:12 18.7 °F /  -7.4 °C 6.5 °F /  -14.2 °C 1021.9 in /  34601.5 hPa WSW 14.8 mph /  23.8 km/h 14.8 mph /  23.8 km/h 45 % 0.0 in /  0 mm
18:14 18.7 °F /  -7.4 °C 6.5 °F /  -14.2 °C 1021.9 in /  34601.5 hPa WNW 13.0 mph /  20.9 km/h 13.0 mph /  20.9 km/h 45 % 0.0 in /  0 mm
18:19 18.8 °F /  -7.3 °C 6.6 °F /  -14.1 °C 1021.9 in /  34601.5 hPa West 13.0 mph /  20.9 km/h 13.0 mph /  20.9 km/h 45 % 0.0 in /  0 mm
18:20 15.7 °F /  -9.1 °C 8.7 °F /  -12.9 °C 1021.9 in /  34601.5 hPa WSW 9.7 mph /  15.6 km/h 14.5 mph /  23.3 km/h 63 % 0.0 in /  0 mm
18:24 18.7 °F /  -7.4 °C 6.8 °F /  -14 °C 1021.9 in /  34601.5 hPa WNW 16.7 mph /  26.9 km/h 16.7 mph /  26.9 km/h 46 % 0.0 in /  0 mm
18:27 18.7 °F /  -7.4 °C 6.8 °F /  -14 °C 1021.9 in /  34601.5 hPa WNW 18.5 mph /  29.8 km/h 18.5 mph /  29.8 km/h 46 % 0.0 in /  0 mm
18:30 18.7 °F /  -7.4 °C 6.8 °F /  -14 °C 1021.9 in /  34601.5 hPa West 8.0 mph /  12.9 km/h 19.3 mph /  31.1 km/h 46 % 0.0 in /  0 mm
18:34 18.7 °F /  -7.4 °C 7.2 °F /  -13.8 °C 1021.9 in /  34601.5 hPa WSW 11.1 mph /  17.9 km/h 11.1 mph /  17.9 km/h 47 % 0.0 in /  0 mm
18:35 18.7 °F /  -7.4 °C 7.2 °F /  -13.8 °C 1021.9 in /  34601.5 hPa WNW 17.5 mph /  28.2 km/h 17.5 mph /  28.2 km/h 47 % 0.0 in /  0 mm
18:40 18.6 °F /  -7.4 °C 7.1 °F /  -13.8 °C 1021.9 in /  34601.5 hPa West 10.0 mph /  16.1 km/h 10.0 mph /  16.1 km/h 47 % 0.0 in /  0 mm
18:42 18.5 °F /  -7.5 °C 7.3 °F /  -13.7 °C 1021.9 in /  34601.5 hPa WSW 7.4 mph /  11.9 km/h 7.4 mph /  11.9 km/h 48 % 0.0 in /  0 mm
18:46 18.4 °F /  -7.6 °C 7.2 °F /  -13.8 °C 1021.9 in /  34601.5 hPa WNW 11.1 mph /  17.9 km/h 11.1 mph /  17.9 km/h 48 % 0.0 in /  0 mm
18:47 18.3 °F /  -7.6 °C 7.1 °F /  -13.8 °C 1021.9 in /  34601.5 hPa WSW 9.5 mph /  15.3 km/h 9.5 mph /  15.3 km/h 48 % 0.0 in /  0 mm
18:50 15.7 °F /  -9.1 °C 8.9 °F /  -12.8 °C 1021.9 in /  34601.5 hPa WSW 8.0 mph /  12.9 km/h 12.9 mph /  20.8 km/h 64 % 0.0 in /  0 mm
18:52 18.3 °F /  -7.6 °C 7.4 °F /  -13.7 °C 1021.9 in /  34601.5 hPa WSW 16.7 mph /  26.9 km/h 16.7 mph /  26.9 km/h 49 % 0.0 in /  0 mm
18:53 18.3 °F /  -7.6 °C 7.4 °F /  -13.7 °C 1021.9 in /  34601.5 hPa WSW 11.1 mph /  17.9 km/h 11.1 mph /  17.9 km/h 49 % 0.0 in /  0 mm
18:58 18.2 °F /  -7.7 °C 7.3 °F /  -13.7 °C 1021.9 in /  34601.5 hPa WSW 11.9 mph /  19.2 km/h 11.9 mph /  19.2 km/h 49 % 0.0 in /  0 mm
19:00 15.6 °F /  -9.1 °C 8.8 °F /  -12.9 °C 1021.9 in /  34601.5 hPa WSW 9.7 mph /  15.6 km/h 9.7 mph /  15.6 km/h 64 % 0.0 in /  0 mm
19:02 18.1 °F /  -7.7 °C 7.2 °F /  -13.8 °C 1021.9 in /  34601.5 hPa West 13.0 mph /  20.9 km/h 13.0 mph /  20.9 km/h 49 % 0.0 in /  0 mm
19:09 17.9 °F /  -7.8 °C 7.3 °F /  -13.7 °C 1021.9 in /  34601.5 hPa SW 9.3 mph /  15 km/h 9.3 mph /  15 km/h 50 % 0.0 in /  0 mm
19:12 18.0 °F /  -7.8 °C 7.4 °F /  -13.7 °C 1021.9 in /  34601.5 hPa West 16.7 mph /  26.9 km/h 16.7 mph /  26.9 km/h 50 % 0.0 in /  0 mm
19:16 18.0 °F /  -7.8 °C 7.4 °F /  -13.7 °C 1021.9 in /  34601.5 hPa West 9.3 mph /  15 km/h 9.3 mph /  15 km/h 50 % 0.0 in /  0 mm
19:18 18.0 °F /  -7.8 °C 7.4 °F /  -13.7 °C 1021.9 in /  34601.5 hPa West 11.1 mph /  17.9 km/h 11.1 mph /  17.9 km/h 50 % 0.0 in /  0 mm
19:20 15.8 °F /  -9 °C 9.2 °F /  -12.7 °C 1021.9 in /  34601.5 hPa WSW 4.8 mph /  7.7 km/h 8.0 mph /  12.9 km/h 65 % 0.0 in /  0 mm
19:23 17.9 °F /  -7.8 °C 7.6 °F /  -13.6 °C 1021.9 in /  34601.5 hPa WSW 9.3 mph /  15 km/h 9.3 mph /  15 km/h 51 % 0.0 in /  0 mm
19:28 17.9 °F /  -7.8 °C 7.6 °F /  -13.6 °C 1021.9 in /  34601.5 hPa WSW 14.8 mph /  23.8 km/h 14.8 mph /  23.8 km/h 51 % 0.0 in /  0 mm
19:29 17.9 °F /  -7.8 °C 7.6 °F /  -13.6 °C 1021.9 in /  34601.5 hPa West 14.8 mph /  23.8 km/h 14.8 mph /  23.8 km/h 51 % 0.0 in /  0 mm
19:30 15.7 °F /  -9.1 °C 9.1 °F /  -12.7 °C 1021.9 in /  34601.5 hPa West 4.8 mph /  7.7 km/h 11.3 mph /  18.2 km/h 65 % 0.0 in /  0 mm
19:34 17.8 °F /  -7.9 °C 7.5 °F /  -13.6 °C 1021.9 in /  34601.5 hPa West 11.1 mph /  17.9 km/h 11.1 mph /  17.9 km/h 51 % 0.0 in /  0 mm
19:37 17.8 °F /  -7.9 °C 7.5 °F /  -13.6 °C 1021.9 in /  34601.5 hPa West 16.7 mph /  26.9 km/h 16.7 mph /  26.9 km/h 51 % 0.0 in /  0 mm
19:40 17.8 °F /  -7.9 °C 7.5 °F /  -13.6 °C 1021.9 in /  34601.5 hPa WSW 13.0 mph /  20.9 km/h 13.0 mph /  20.9 km/h 51 % 0.0 in /  0 mm
19:44 17.7 °F /  -7.9 °C 7.4 °F /  -13.7 °C 1021.9 in /  34601.5 hPa SW 7.9 mph /  12.7 km/h 7.9 mph /  12.7 km/h 51 % 0.0 in /  0 mm
19:47 17.7 °F /  -7.9 °C 7.7 °F /  -13.5 °C 1021.9 in /  34601.5 hPa WSW 14.0 mph /  22.5 km/h 14.0 mph /  22.5 km/h 52 % 0.0 in /  0 mm
19:50 17.7 °F /  -7.9 °C 7.7 °F /  -13.5 °C 1021.9 in /  34601.5 hPa West 14.8 mph /  23.8 km/h 14.8 mph /  23.8 km/h 52 % 0.0 in /  0 mm
19:52 17.6 °F /  -8 °C 7.6 °F /  -13.6 °C 1021.9 in /  34601.5 hPa West 11.1 mph /  17.9 km/h 11.1 mph /  17.9 km/h 52 % 0.0 in /  0 mm
19:57 17.6 °F /  -8 °C 7.6 °F /  -13.6 °C 1021.9 in /  34601.5 hPa WNW 11.1 mph /  17.9 km/h 11.1 mph /  17.9 km/h 52 % 0.0 in /  0 mm
19:59 17.6 °F /  -8 °C 7.6 °F /  -13.6 °C 1021.9 in /  34601.5 hPa WNW 14.8 mph /  23.8 km/h 14.8 mph /  23.8 km/h 52 % 0.0 in /  0 mm
20:00 15.6 °F /  -9.1 °C 9.1 °F /  -12.7 °C 1021.9 in /  34601.5 hPa West 4.8 mph /  7.7 km/h 9.7 mph /  15.6 km/h 65 % 0.0 in /  0 mm
20:03 17.6 °F /  -8 °C 7.9 °F /  -13.4 °C 1021.9 in /  34601.5 hPa WNW 18.5 mph /  29.8 km/h 18.5 mph /  29.8 km/h 53 % 0.0 in /  0 mm
20:08 17.6 °F /  -8 °C 7.9 °F /  -13.4 °C 1021.9 in /  34601.5 hPa WSW 25.1 mph /  40.4 km/h 25.1 mph /  40.4 km/h 53 % 0.0 in /  0 mm
20:10 15.7 °F /  -9.1 °C 9.1 °F /  -12.7 °C 1020.9 in /  34567.7 hPa West 9.7 mph /  15.6 km/h 9.7 mph /  15.6 km/h 65 % 0.0 in /  0 mm
20:13 17.5 °F /  -8.1 °C 7.8 °F /  -13.4 °C 1021.9 in /  34601.5 hPa WSW 16.7 mph /  26.9 km/h 16.7 mph /  26.9 km/h 53 % 0.0 in /  0 mm
20:15 17.5 °F /  -8.1 °C 7.8 °F /  -13.4 °C 1021.9 in /  34601.5 hPa WSW 13.0 mph /  20.9 km/h 13.0 mph /  20.9 km/h 53 % 0.0 in /  0 mm
20:18 17.4 °F /  -8.1 °C 7.7 °F /  -13.5 °C 1021.9 in /  34601.5 hPa West 11.4 mph /  18.3 km/h 11.4 mph /  18.3 km/h 53 % 0.0 in /  0 mm
20:20 15.5 °F /  -9.2 °C 8.9 °F /  -12.8 °C 1020.9 in /  34567.7 hPa West 4.8 mph /  7.7 km/h 11.3 mph /  18.2 km/h 65 % 0.0 in /  0 mm
20:23 17.3 °F /  -8.2 °C 7.9 °F /  -13.4 °C 1022.9 in /  34635.4 hPa WSW 13.0 mph /  20.9 km/h 13.0 mph /  20.9 km/h 54 % 0.0 in /  0 mm
20:26 17.3 °F /  -8.2 °C 7.9 °F /  -13.4 °C 1022.9 in /  34635.4 hPa South 9.7 mph /  15.6 km/h 9.7 mph /  15.6 km/h 54 % 0.0 in /  0 mm
20:29 17.3 °F /  -8.2 °C 7.9 °F /  -13.4 °C 1022.9 in /  34635.4 hPa West 16.7 mph /  26.9 km/h 16.7 mph /  26.9 km/h 54 % 0.0 in /  0 mm
20:30 15.6 °F /  -9.1 °C 9.3 °F /  -12.6 °C 1020.9 in /  34567.7 hPa West 8.0 mph /  12.9 km/h 12.9 mph /  20.8 km/h 66 % 0.0 in /  0 mm
20:32 17.2 °F /  -8.2 °C 7.8 °F /  -13.4 °C 1022.9 in /  34635.4 hPa West 13.0 mph /  20.9 km/h 13.0 mph /  20.9 km/h 54 % 0.0 in /  0 mm
20:37 17.1 °F /  -8.3 °C 7.7 °F /  -13.5 °C 1021.9 in /  34601.5 hPa West 13.0 mph /  20.9 km/h 13.0 mph /  20.9 km/h 54 % 0.0 in /  0 mm
20:39 17.1 °F /  -8.3 °C 8.0 °F /  -13.3 °C 1021.9 in /  34601.5 hPa WSW 9.3 mph /  15 km/h 9.3 mph /  15 km/h 55 % 0.0 in /  0 mm
20:42 17.0 °F /  -8.3 °C 7.9 °F /  -13.4 °C 1021.9 in /  34601.5 hPa WSW 9.3 mph /  15 km/h 9.3 mph /  15 km/h 55 % 0.0 in /  0 mm
20:44 17.0 °F /  -8.3 °C 7.9 °F /  -13.4 °C 1021.9 in /  34601.5 hPa West 9.3 mph /  15 km/h 9.3 mph /  15 km/h 55 % 0.0 in /  0 mm
20:47 17.0 °F /  -8.3 °C 7.9 °F /  -13.4 °C 1021.9 in /  34601.5 hPa WSW 13.0 mph /  20.9 km/h 13.0 mph /  20.9 km/h 55 % 0.0 in /  0 mm
20:50 15.6 °F /  -9.1 °C 9.3 °F /  -12.6 °C 1020.9 in /  34567.7 hPa WSW 8.0 mph /  12.9 km/h 12.9 mph /  20.8 km/h 66 % 0.0 in /  0 mm
20:51 16.9 °F /  -8.4 °C 8.1 °F /  -13.3 °C 1021.9 in /  34601.5 hPa WSW 7.9 mph /  12.7 km/h 7.9 mph /  12.7 km/h 56 % 0.0 in /  0 mm
20:56 16.8 °F /  -8.4 °C 8.2 °F /  -13.2 °C 1021.9 in /  34601.5 hPa WSW 9.0 mph /  14.5 km/h 9.0 mph /  14.5 km/h 57 % 0.0 in /  0 mm
20:57 16.8 °F /  -8.4 °C 8.2 °F /  -13.2 °C 1021.9 in /  34601.5 hPa West 9.3 mph /  15 km/h 9.3 mph /  15 km/h 57 % 0.0 in /  0 mm
21:03 16.7 °F /  -8.5 °C 8.4 °F /  -13.1 °C 1021.9 in /  34601.5 hPa WSW 9.3 mph /  15 km/h 9.3 mph /  15 km/h 58 % 0.0 in /  0 mm
21:05 16.7 °F /  -8.5 °C 8.4 °F /  -13.1 °C 1021.9 in /  34601.5 hPa West 9.7 mph /  15.6 km/h 9.7 mph /  15.6 km/h 58 % 0.0 in /  0 mm
21:10 16.6 °F /  -8.6 °C 8.3 °F /  -13.2 °C 1022.9 in /  34635.4 hPa WSW 9.3 mph /  15 km/h 9.3 mph /  15 km/h 58 % 0.0 in /  0 mm
21:15 16.6 °F /  -8.6 °C 8.6 °F /  -13 °C 1022.9 in /  34635.4 hPa WSW 7.4 mph /  11.9 km/h 7.4 mph /  11.9 km/h 59 % 0.0 in /  0 mm
21:17 16.5 °F /  -8.6 °C 8.4 °F /  -13.1 °C 1022.9 in /  34635.4 hPa WSW 9.3 mph /  15 km/h 9.3 mph /  15 km/h 59 % 0.0 in /  0 mm
21:18 16.5 °F /  -8.6 °C 8.4 °F /  -13.1 °C 1022.9 in /  34635.4 hPa SW 9.3 mph /  15 km/h 9.3 mph /  15 km/h 59 % 0.0 in /  0 mm
21:20 15.7 °F /  -9.1 °C 9.4 °F /  -12.6 °C 1019.9 in /  34533.8 hPa West 9.7 mph /  15.6 km/h 17.7 mph /  28.5 km/h 66 % 0.0 in /  0 mm
21:23 16.4 °F /  -8.7 °C 8.4 °F /  -13.1 °C 1021.9 in /  34601.5 hPa WSW 7.4 mph /  11.9 km/h 7.4 mph /  11.9 km/h 59 % 0.0 in /  0 mm
21:28 16.4 °F /  -8.7 °C 8.4 °F /  -13.1 °C 1021.9 in /  34601.5 hPa WSW 9.3 mph /  15 km/h 9.3 mph /  15 km/h 59 % 0.0 in /  0 mm
21:29 16.4 °F /  -8.7 °C 8.4 °F /  -13.1 °C 1021.9 in /  34601.5 hPa SW 7.4 mph /  11.9 km/h 7.4 mph /  11.9 km/h 59 % 0.0 in /  0 mm
21:30 15.8 °F /  -9 °C 9.2 °F /  -12.7 °C 1019.9 in /  34533.8 hPa West 9.7 mph /  15.6 km/h 12.9 mph /  20.8 km/h 65 % 0.0 in /  0 mm
21:33 16.5 °F /  -8.6 °C 8.7 °F /  -12.9 °C 1021.9 in /  34601.5 hPa West 11.1 mph /  17.9 km/h 11.1 mph /  17.9 km/h 60 % 0.0 in /  0 mm
21:38 16.5 °F /  -8.6 °C 8.7 °F /  -12.9 °C 1022.9 in /  34635.4 hPa West 5.6 mph /  9 km/h 5.6 mph /  9 km/h 60 % 0.0 in /  0 mm
21:40 15.7 °F /  -9.1 °C 9.1 °F /  -12.7 °C 1019.9 in /  34533.8 hPa West 11.3 mph /  18.2 km/h 11.3 mph /  18.2 km/h 65 % 0.0 in /  0 mm
21:43 16.4 °F /  -8.7 °C 8.6 °F /  -13 °C 1022.9 in /  34635.4 hPa WSW 7.4 mph /  11.9 km/h 7.4 mph /  11.9 km/h 60 % 0.0 in /  0 mm
21:44 16.4 °F /  -8.7 °C 8.6 °F /  -13 °C 1022.9 in /  34635.4 hPa West 5.6 mph /  9 km/h 5.6 mph /  9 km/h 60 % 0.0 in /  0 mm
21:45 16.4 °F /  -8.7 °C 8.6 °F /  -13 °C 1022.9 in /  34635.4 hPa West 3.2 mph /  5.1 km/h 9.7 mph /  15.6 km/h 60 % 0.0 in /  0 mm
21:50 16.4 °F /  -8.7 °C 8.6 °F /  -13 °C 1022.9 in /  34635.4 hPa WNW 7.4 mph /  11.9 km/h 7.4 mph /  11.9 km/h 60 % 0.0 in /  0 mm
21:53 16.5 °F /  -8.6 °C 8.9 °F /  -12.8 °C 1022.9 in /  34635.4 hPa West 14.8 mph /  23.8 km/h 14.8 mph /  23.8 km/h 61 % 0.0 in /  0 mm
21:57 16.5 °F /  -8.6 °C 8.9 °F /  -12.8 °C 1022.9 in /  34635.4 hPa WSW 13.0 mph /  20.9 km/h 13.0 mph /  20.9 km/h 61 % 0.0 in /  0 mm
22:01 16.4 °F /  -8.7 °C 8.8 °F /  -12.9 °C 1022.9 in /  34635.4 hPa West 13.0 mph /  20.9 km/h 13.0 mph /  20.9 km/h 61 % 0.0 in /  0 mm
22:02 16.4 °F /  -8.7 °C 8.8 °F /  -12.9 °C 1022.9 in /  34635.4 hPa WSW 13.0 mph /  20.9 km/h 13.0 mph /  20.9 km/h 61 % 0.0 in /  0 mm
22:08 16.4 °F /  -8.7 °C 8.8 °F /  -12.9 °C 1021.9 in /  34601.5 hPa West 16.1 mph /  25.9 km/h 16.1 mph /  25.9 km/h 61 % 0.0 in /  0 mm
22:10 15.7 °F /  -9.1 °C 9.1 °F /  -12.7 °C 1019.9 in /  34533.8 hPa WSW 8.0 mph /  12.9 km/h 14.5 mph /  23.3 km/h 65 % 0.0 in /  0 mm
22:11 16.4 °F /  -8.7 °C 8.8 °F /  -12.9 °C 1021.9 in /  34601.5 hPa West 16.7 mph /  26.9 km/h 16.7 mph /  26.9 km/h 61 % 0.0 in /  0 mm
22:13 16.4 °F /  -8.7 °C 8.8 °F /  -12.9 °C 1021.9 in /  34601.5 hPa WSW 11.1 mph /  17.9 km/h 11.1 mph /  17.9 km/h 61 % 0.0 in /  0 mm
22:17 16.4 °F /  -8.7 °C 8.8 °F /  -12.9 °C 1021.9 in /  34601.5 hPa West 9.3 mph /  15 km/h 9.3 mph /  15 km/h 61 % 0.0 in /  0 mm
22:19 16.4 °F /  -8.7 °C 8.8 °F /  -12.9 °C 1021.9 in /  34601.5 hPa WNW 12.2 mph /  19.6 km/h 12.2 mph /  19.6 km/h 61 % 0.0 in /  0 mm
22:24 16.4 °F /  -8.7 °C 8.8 °F /  -12.9 °C 1022.9 in /  34635.4 hPa West 9.3 mph /  15 km/h 9.3 mph /  15 km/h 61 % 0.0 in /  0 mm
22:26 16.4 °F /  -8.7 °C 8.8 °F /  -12.9 °C 1022.9 in /  34635.4 hPa WSW 16.7 mph /  26.9 km/h 16.7 mph /  26.9 km/h 61 % 0.0 in /  0 mm
22:29 16.4 °F /  -8.7 °C 8.8 °F /  -12.9 °C 1022.9 in /  34635.4 hPa West 11.9 mph /  19.2 km/h 11.9 mph /  19.2 km/h 61 % 0.0 in /  0 mm
22:33 16.4 °F /  -8.7 °C 8.8 °F /  -12.9 °C 1022.9 in /  34635.4 hPa WSW 7.4 mph /  11.9 km/h 7.4 mph /  11.9 km/h 61 % 0.0 in /  0 mm
22:34 16.4 °F /  -8.7 °C 8.8 °F /  -12.9 °C 1022.9 in /  34635.4 hPa WNW 13.0 mph /  20.9 km/h 13.0 mph /  20.9 km/h 61 % 0.0 in /  0 mm
22:40 16.4 °F /  -8.7 °C 8.8 °F /  -12.9 °C 1022.9 in /  34635.4 hPa West 18.3 mph /  29.5 km/h 18.3 mph /  29.5 km/h 61 % 0.0 in /  0 mm
22:45 16.5 °F /  -8.6 °C 8.9 °F /  -12.8 °C 1022.9 in /  34635.4 hPa WSW 14.8 mph /  23.8 km/h 14.8 mph /  23.8 km/h 61 % 0.0 in /  0 mm
22:50 16.4 °F /  -8.7 °C 8.8 °F /  -12.9 °C 1022.9 in /  34635.4 hPa WSW 13.0 mph /  20.9 km/h 13.0 mph /  20.9 km/h 61 % 0.0 in /  0 mm
22:51 16.4 °F /  -8.7 °C 8.8 °F /  -12.9 °C 1022.9 in /  34635.4 hPa SW 13.0 mph /  20.9 km/h 13.0 mph /  20.9 km/h 61 % 0.0 in /  0 mm
22:56 16.5 °F /  -8.6 °C 8.9 °F /  -12.8 °C 1022.9 in /  34635.4 hPa WSW 9.3 mph /  15 km/h 9.3 mph /  15 km/h 61 % 0.0 in /  0 mm
23:01 16.4 °F /  -8.7 °C 8.8 °F /  -12.9 °C 1022.9 in /  34635.4 hPa NW 14.8 mph /  23.8 km/h 14.8 mph /  23.8 km/h 61 % 0.0 in /  0 mm
23:02 16.3 °F /  -8.7 °C 8.8 °F /  -12.9 °C 1022.9 in /  34635.4 hPa West 14.8 mph /  23.8 km/h 14.8 mph /  23.8 km/h 61 % 0.0 in /  0 mm
23:07 16.3 °F /  -8.7 °C 9.0 °F /  -12.8 °C 1022.9 in /  34635.4 hPa WSW 13.0 mph /  20.9 km/h 13.0 mph /  20.9 km/h 62 % 0.0 in /  0 mm
23:10 15.8 °F /  -9 °C 9.2 °F /  -12.7 °C 1019.9 in /  34533.8 hPa West 4.8 mph /  7.7 km/h 19.3 mph /  31.1 km/h 65 % 0.0 in /  0 mm
23:12 16.3 °F /  -8.7 °C 9.0 °F /  -12.8 °C 1022.9 in /  34635.4 hPa SW 13.0 mph /  20.9 km/h 13.0 mph /  20.9 km/h 62 % 0.0 in /  0 mm
23:17 16.3 °F /  -8.7 °C 9.0 °F /  -12.8 °C 1022.9 in /  34635.4 hPa WSW 13.0 mph /  20.9 km/h 13.0 mph /  20.9 km/h 62 % 0.0 in /  0 mm
23:20 15.8 °F /  -9 °C 9.2 °F /  -12.7 °C 1019.9 in /  34533.8 hPa WNW 9.7 mph /  15.6 km/h 12.9 mph /  20.8 km/h 65 % 0.0 in /  0 mm
23:22 16.2 °F /  -8.8 °C 8.9 °F /  -12.8 °C 1022.9 in /  34635.4 hPa WNW 7.4 mph /  11.9 km/h 7.4 mph /  11.9 km/h 62 % 0.0 in /  0 mm
23:23 16.2 °F /  -8.8 °C 8.9 °F /  -12.8 °C 1022.9 in /  34635.4 hPa WNW 9.3 mph /  15 km/h 9.3 mph /  15 km/h 62 % 0.0 in /  0 mm
23:29 16.1 °F /  -8.8 °C 8.8 °F /  -12.9 °C 1022.9 in /  34635.4 hPa WSW 16.1 mph /  25.9 km/h 16.1 mph /  25.9 km/h 62 % 0.0 in /  0 mm
23:30 15.9 °F /  -8.9 °C 9.3 °F /  -12.6 °C 1019.9 in /  34533.8 hPa WNW 11.3 mph /  18.2 km/h 24.1 mph /  38.8 km/h 65 % 0.0 in /  0 mm
23:34 16.1 °F /  -8.8 °C 8.8 °F /  -12.9 °C 1022.9 in /  34635.4 hPa WSW 14.8 mph /  23.8 km/h 14.8 mph /  23.8 km/h 62 % 0.0 in /  0 mm
23:35 16.1 °F /  -8.8 °C 8.8 °F /  -12.9 °C 1022.9 in /  34635.4 hPa WSW 14.8 mph /  23.8 km/h 14.8 mph /  23.8 km/h 62 % 0.0 in /  0 mm
23:36 16.1 °F /  -8.8 °C 8.8 °F /  -12.9 °C 1022.9 in /  34635.4 hPa NW 9.3 mph /  15 km/h 9.5 mph /  15.3 km/h 62 % 0.0 in /  0 mm
23:40 15.9 °F /  -8.9 °C 9.3 °F /  -12.6 °C 1019.9 in /  34533.8 hPa West 14.5 mph /  23.3 km/h 16.1 mph /  25.9 km/h 65 % 0.0 in /  0 mm
23:41 15.9 °F /  -8.9 °C 8.6 °F /  -13 °C 1022.9 in /  34635.4 hPa WNW 9.3 mph /  15 km/h 9.3 mph /  15 km/h 62 % 0.0 in /  0 mm
23:46 15.9 °F /  -8.9 °C 8.6 °F /  -13 °C 1022.9 in /  34635.4 hPa West 9.5 mph /  15.3 km/h 9.5 mph /  15.3 km/h 62 % 0.0 in /  0 mm
23:50 15.8 °F /  -9 °C 9.2 °F /  -12.7 °C 1018.8 in /  34496.6 hPa WSW 12.9 mph /  20.8 km/h 12.9 mph /  20.8 km/h 65 % 0.0 in /  0 mm
23:51 15.9 °F /  -8.9 °C 8.8 °F /  -12.9 °C 1022.9 in /  34635.4 hPa WNW 16.7 mph /  26.9 km/h 16.7 mph /  26.9 km/h 63 % 0.0 in /  0 mm
23:56 15.8 °F /  -9 °C 8.8 °F /  -12.9 °C 1021.9 in /  34601.5 hPa WSW 11.1 mph /  17.9 km/h 11.1 mph /  17.9 km/h 63 % 0.0 in /  0 mm
23:57 15.8 °F /  -9 °C 8.8 °F /  -12.9 °C 1021.9 in /  34601.5 hPa WSW 11.1 mph /  17.9 km/h 11.1 mph /  17.9 km/h 63 % 0.0 in /  0 mm
Meteo Sesrovires
Elogis d' Weather Underground - 1.75 mb

Guio original per  Jim McMurry - jmcmurry@mwt.net Adaptat per a la plantilla per  Wim van der Kuil - Leuven-Template.eu

Trobareu la nostra informacio del temps tambe a:

Weather Underground

AWEKAS